Time;durP1;ratioP1;P1;durP2;ratioP2;P2;SDS_P1;SDS_P2;PMS_P1;PMS_P2;Temp;Humidity;BMP_temperature;BMP_pressure;BME280_temperature;BME280_humidity;BME280_pressure;Samples;Min_cycle;Max_cycle;Signal;HPM_P1;HPM_P2
2022/08/15 00:02:26;122882.00;0.41;213.05;0.00;0.00;0.62;;;;;24.80;1.00;;;;;;2268102;61;2005;-86
2022/08/15 00:04:53;0.00;0.00;0.62;0.00;0.00;0.62;;;;;24.70;1.00;;;;;;2268024;61;1359;-85
2022/08/15 00:07:23;111662.00;0.37;193.70;0.00;0.00;0.62;;;;;24.70;1.00;;;;;;2268103;61;1094;-87
2022/08/15 00:09:50;206436.00;0.69;357.00;0.00;0.00;0.62;;;;;24.40;1.00;;;;;;2268012;61;1152;-85
2022/08/15 00:12:18;126577.00;0.42;219.43;0.00;0.00;0.62;;;;;24.40;1.00;;;;;;2268079;61;998;-87
2022/08/15 00:14:45;261201.00;0.87;451.21;0.00;0.00;0.62;;;;;24.70;1.00;;;;;;2268027;61;1537;-85
2022/08/15 00:17:12;148947.00;0.50;257.99;0.00;0.00;0.62;;;;;24.70;1.00;;;;;;2268136;61;1105;-88
2022/08/15 00:19:44;72739.00;0.24;126.49;0.00;0.00;0.62;;;;;24.40;1.00;;;;;;2267982;61;1603;-86
2022/08/15 00:22:17;56057.00;0.19;97.66;0.00;0.00;0.62;;;;;24.70;1.00;;;;;;2268092;61;1993;-86
2022/08/15 00:24:45;116287.00;0.39;201.68;0.00;0.00;0.62;;;;;24.70;1.00;;;;;;2268002;61;1697;-84
2022/08/15 00:27:13;121382.00;0.40;210.47;39237.00;0.13;68.57;;;;;24.30;1.00;;;;;;2268251;61;1090;-87
2022/08/15 00:29:41;0.00;0.00;0.62;0.00;0.00;0.62;;;;;23.80;1.00;;;;;;2268804;61;1477;-86
2022/08/15 00:32:11;7400.00;0.02;13.44;0.00;0.00;0.62;;;;;23.40;1.00;;;;;;2268838;61;1156;-86
2022/08/15 00:34:40;138376.00;0.46;239.77;0.00;0.00;0.62;;;;;23.50;1.00;;;;;;2268770;61;1070;-86
2022/08/15 00:37:07;62661.00;0.21;109.08;0.00;0.00;0.62;;;;;23.40;1.00;;;;;;2268739;61;1424;-87
2022/08/15 00:39:34;0.00;0.00;0.62;0.00;0.00;0.62;;;;;23.30;1.00;;;;;;2268772;61;1088;-88
2022/08/15 00:42:03;540578.00;1.80;931.72;135020.00;0.45;233.99;;;;;23.30;1.00;;;;;;2268646;61;2000;-86
2022/08/15 00:44:34;135078.00;0.45;234.09;0.00;0.00;0.62;;;;;23.50;1.00;;;;;;2268654;61;1028;-84
2022/08/15 00:47:05;48875.00;0.16;85.24;0.00;0.00;0.62;;;;;23.50;1.00;;;;;;2268637;61;1446;-85
2022/08/15 00:49:35;65156.00;0.22;113.39;0.00;0.00;0.62;;;;;23.50;1.00;;;;;;2268612;61;1073;-86
2022/08/15 00:52:08;137358.00;0.46;238.02;0.00;0.00;0.62;;;;;23.60;1.00;;;;;;2268721;61;1117;-84
2022/08/15 00:54:39;0.00;0.00;0.62;0.00;0.00;0.62;;;;;23.70;1.00;;;;;;2268552;61;1051;-85
2022/08/15 00:57:09;217544.00;0.73;376.12;27529.00;0.09;48.31;;;;;23.60;1.00;;;;;;2268557;61;1530;-84
2022/08/15 00:59:41;93414.00;0.31;162.20;0.00;0.00;0.62;;;;;23.70;1.00;;;;;;2268749;61;1191;-89
2022/08/15 01:02:17;26831.00;0.09;47.10;0.00;0.00;0.62;;;;;23.80;1.00;;;;;;2268712;61;1981;-88
2022/08/15 01:04:45;24467.00;0.08;43.00;0.00;0.00;0.62;;;;;23.70;1.00;;;;;;2268522;61;1560;-86
2022/08/15 01:07:17;132741.00;0.44;230.06;0.00;0.00;0.62;;;;;23.50;1.00;;;;;;2268721;61;1264;-86
2022/08/15 01:09:44;165477.00;0.55;286.48;0.00;0.00;0.62;;;;;23.40;1.00;;;;;;2268674;61;2153;-87
2022/08/15 01:12:17;139991.00;0.47;242.56;0.00;0.00;0.62;;;;;23.20;1.00;;;;;;2268657;61;1469;-86
2022/08/15 01:14:50;277392.00;0.92;479.05;0.00;0.00;0.62;;;;;23.30;1.00;;;;;;2268613;61;1369;-84
2022/08/15 01:17:22;135129.00;0.45;234.17;0.00;0.00;0.62;;;;;23.50;1.00;;;;;;2268630;61;1073;-87
2022/08/15 01:19:57;412759.00;1.38;711.74;0.00;0.00;0.62;;;;;23.50;1.00;;;;;;2268638;61;1540;-87
2022/08/15 01:22:47;203664.00;0.68;352.23;0.00;0.00;0.62;;;;;23.40;1.00;;;;;;2268668;61;1915;-86
2022/08/15 01:25:21;78270.00;0.26;136.05;0.00;0.00;0.62;;;;;23.40;1.00;;;;;;2268580;61;1490;-85
2022/08/15 01:27:52;171254.00;0.57;296.43;0.00;0.00;0.62;;;;;23.40;1.00;;;;;;2268474;61;1154;-84
2022/08/15 01:30:23;179607.00;0.60;310.81;0.00;0.00;0.62;;;;;23.30;1.00;;;;;;2268662;61;1053;-86
2022/08/15 01:32:50;78066.00;0.26;135.70;0.00;0.00;0.62;;;;;23.20;1.00;;;;;;2268494;61;1338;-85
2022/08/15 01:35:17;43825.00;0.15;76.51;0.00;0.00;0.62;;;;;23.30;1.00;;;;;;2268447;61;1361;-85
2022/08/15 01:37:44;134825.00;0.45;233.65;20667.00;0.07;36.43;;;;;23.20;1.00;;;;;;2268607;61;925;-84
2022/08/15 01:40:23;181434.00;0.60;313.96;0.00;0.00;0.62;;;;;23.30;1.00;;;;;;2268501;61;1945;-84
2022/08/15 01:42:52;175299.00;0.58;303.39;0.00;0.00;0.62;;;;;23.60;1.00;;;;;;2268586;61;1994;-87
2022/08/15 01:45:25;88932.00;0.30;154.46;0.00;0.00;0.62;;;;;23.70;1.00;;;;;;2268525;61;1618;-85
2022/08/15 01:47:59;152866.00;0.51;264.75;0.00;0.00;0.62;;;;;23.60;1.00;;;;;;2268605;61;1468;-86
2022/08/15 01:50:30;196993.00;0.66;340.75;0.00;0.00;0.62;;;;;23.70;1.00;;;;;;2268510;61;1589;-87
2022/08/15 01:53:03;145307.00;0.48;251.72;34172.00;0.11;59.80;;;;;23.90;1.00;;;;;;2268610;61;1045;-89
2022/08/15 01:55:41;0.00;0.00;0.62;0.00;0.00;0.62;;;;;24.00;1.00;;;;;;2268551;61;1468;-85
2022/08/15 01:58:08;275638.00;0.92;476.04;10136.00;0.03;18.18;;;;;24.10;1.00;;;;;;2268498;61;2044;-86
2022/08/15 02:00:37;133110.00;0.44;230.69;0.00;0.00;0.62;;;;;24.10;1.00;;;;;;2268502;61;1418;-87
2022/08/15 02:03:04;141606.00;0.47;245.34;0.00;0.00;0.62;;;;;24.10;1.00;;;;;;2268478;61;1929;-87
2022/08/15 02:05:31;19644.00;0.07;34.65;0.00;0.00;0.62;;;;;24.40;1.00;;;;;;2268449;61;1591;-86
2022/08/15 02:07:58;156146.00;0.52;270.40;0.00;0.00;0.62;;;;;24.40;1.00;;;;;;2268419;61;1148;-85
2022/08/15 02:10:26;194239.00;0.65;336.01;0.00;0.00;0.62;;;;;24.30;1.00;;;;;;2268455;61;1063;-88
2022/08/15 02:12:57;46123.00;0.15;80.48;0.00;0.00;0.62;;;;;24.60;1.00;;;;;;2268477;61;1104;-89
2022/08/15 02:15:25;54461.00;0.18;94.90;0.00;0.00;0.62;;;;;24.70;1.00;;;;;;2268447;61;1370;-85
2022/08/15 02:17:53;223049.00;0.74;385.59;49339.00;0.16;86.04;;;;;24.90;1.00;;;;;;2268348;61;1399;-86
2022/08/15 02:20:22;192145.00;0.64;332.40;0.00;0.00;0.62;;;;;25.10;1.00;;;;;;2268396;61;1134;-87
2022/08/15 02:22:49;0.00;0.00;0.62;0.00;0.00;0.62;;;;;25.00;1.00;;;;;;2268336;61;1926;-82
2022/08/15 02:25:22;268806.00;0.90;464.29;0.00;0.00;0.62;;;;;25.10;1.00;;;;;;2268293;61;1333;-83
2022/08/15 02:27:50;301934.00;1.01;521.24;76374.00;0.25;132.77;;;;;24.70;1.00;;;;;;2268456;61;1194;-84
2022/08/15 02:30:19;129835.00;0.43;225.04;0.00;0.00;0.62;;;;;24.40;1.00;;;;;;2268335;61;1953;-84
2022/08/15 02:32:47;0.00;0.00;0.62;0.00;0.00;0.62;;;;;24.30;1.00;;;;;;2268360;61;1123;-84
2022/08/15 02:35:16;242960.00;0.81;419.84;14428.00;0.05;25.62;;;;;24.20;1.00;;;;;;2268349;61;1365;-84
2022/08/15 02:37:43;20807.00;0.07;36.67;0.00;0.00;0.62;;;;;24.10;1.00;;;;;;2268413;61;1233;-87
2022/08/15 02:40:15;476032.00;1.59;820.57;29457.00;0.10;51.64;;;;;24.10;1.00;;;;;;2268418;61;1054;-87
2022/08/15 02:42:44;115605.00;0.39;200.50;0.00;0.00;0.62;;;;;24.10;1.00;;;;;;2268303;61;2003;-87
2022/08/15 02:45:13;100099.00;0.33;173.74;0.00;0.00;0.62;;;;;24.10;1.00;;;;;;2268372;61;1364;-85
2022/08/15 02:47:43;48033.00;0.16;83.78;0.00;0.00;0.62;;;;;24.00;1.00;;;;;;2268331;61;1007;-83
2022/08/15 02:50:13;423115.00;1.41;729.55;25021.00;0.08;43.96;;;;;23.70;1.00;;;;;;2268231;61;1109;-84
2022/08/15 02:52:40;12214.00;0.04;21.78;0.00;0.00;0.62;;;;;23.40;1.00;;;;;;2268273;61;927;-83
2022/08/15 02:55:10;105207.00;0.35;182.56;0.00;0.00;0.62;;;;;23.30;1.00;;;;;;2268214;61;1280;-83
2022/08/15 02:57:38;0.00;0.00;0.62;0.00;0.00;0.62;;;;;23.10;1.00;;;;;;2268293;61;1093;-83
2022/08/15 03:00:09;122927.00;0.41;213.13;0.00;0.00;0.62;;;;;23.30;1.00;;;;;;2268281;61;1140;-86
2022/08/15 03:02:53;196327.00;0.65;339.60;0.00;0.00;0.62;;;;;23.20;1.00;;;;;;2268160;61;1980;-86
2022/08/15 03:05:21;0.00;0.00;0.62;0.00;0.00;0.62;;;;;22.90;1.00;;;;;;2268339;61;1424;-87
2022/08/15 03:07:48;201259.00;0.67;348.09;0.00;0.00;0.62;;;;;22.90;1.00;;;;;;2268298;61;1114;-89
2022/08/15 03:10:19;304083.00;1.01;524.94;0.00;0.00;0.62;;;;;22.80;1.00;;;;;;2268253;61;1453;-88
2022/08/15 03:12:53;183903.00;0.61;318.21;0.00;0.00;0.62;;;;;22.70;1.00;;;;;;2268354;61;1166;-88
2022/08/15 03:15:25;217135.00;0.72;375.41;0.00;0.00;0.62;;;;;22.50;1.00;;;;;;2268319;61;1466;-89
2022/08/15 03:17:53;189080.00;0.63;327.12;0.00;0.00;0.62;;;;;22.60;1.00;;;;;;2268266;61;1540;-88
2022/08/15 03:20:21;104030.00;0.35;180.53;24285.00;0.08;42.69;;;;;22.70;1.00;;;;;;2268260;61;1068;-90
2022/08/15 03:22:49;261360.00;0.87;451.49;2776.00;0.01;5.43;;;;;22.70;1.00;;;;;;2268217;61;1924;-88
2022/08/15 03:25:20;13925.00;0.05;24.75;0.00;0.00;0.62;;;;;22.60;1.00;;;;;;2268243;61;1345;-86
2022/08/15 03:27:50;67347.00;0.22;117.18;0.00;0.00;0.62;;;;;22.80;1.00;;;;;;2268273;61;1056;-87
2022/08/15 03:30:23;151682.00;0.51;262.71;0.00;0.00;0.62;;;;;23.00;1.00;;;;;;2268251;61;1021;-87
2022/08/15 03:32:54;40272.00;0.13;70.36;0.00;0.00;0.62;;;;;23.00;1.00;;;;;;2268254;61;1120;-88
2022/08/15 03:35:23;54082.00;0.18;94.25;0.00;0.00;0.62;;;;;23.10;1.00;;;;;;2268198;61;1478;-90
2022/08/15 03:37:50;0.00;0.00;0.62;0.00;0.00;0.62;;;;;23.10;1.00;;;;;;2268206;61;1081;-85
2022/08/15 03:40:18;28511.00;0.10;50.01;0.00;0.00;0.62;;;;;23.30;1.00;;;;;;2268169;61;1540;-87
2022/08/15 03:42:52;145217.00;0.48;251.56;0.00;0.00;0.62;;;;;23.40;1.00;;;;;;2267953;61;1907;-88
2022/08/15 03:45:20;192226.00;0.64;332.54;0.00;0.00;0.62;;;;;23.40;1.00;;;;;;2268231;61;1444;-88
2022/08/15 03:47:49;144838.00;0.48;250.91;0.00;0.00;0.62;;;;;23.40;1.00;;;;;;2268237;61;915;-88
2022/08/15 03:50:21;96195.00;0.32;167.00;0.00;0.00;0.62;;;;;23.20;1.00;;;;;;2268157;61;1069;-90
2022/08/15 03:52:54;237647.00;0.79;410.70;8139.00;0.03;14.72;;;;;23.10;1.00;;;;;;2268221;61;1473;-88
2022/08/15 03:55:27;150262.00;0.50;260.26;0.00;0.00;0.62;;;;;23.00;1.00;;;;;;2268181;61;1652;-87
2022/08/15 03:57:55;134966.00;0.45;233.89;0.00;0.00;0.62;;;;;23.20;1.00;;;;;;2268102;61;1545;-88
2022/08/15 04:00:27;245612.00;0.82;424.40;0.00;0.00;0.62;;;;;23.60;1.00;;;;;;2268171;61;893;-88
2022/08/15 04:03:08;129615.00;0.43;224.67;0.00;0.00;0.62;;;;;23.70;1.00;;;;;;2268548;61;1917;-88
2022/08/15 04:05:37;310135.00;1.03;535.34;6733.00;0.02;12.29;;;;;23.70;1.00;;;;;;2268878;61;1388;-87
2022/08/15 04:08:10;471091.00;1.57;812.07;102313.00;0.34;177.56;;;;;23.70;1.00;;;;;;2268847;61;1552;-88
2022/08/15 04:10:38;315157.00;1.05;543.97;66179.00;0.22;115.16;;;;;23.70;1.00;;;;;;2268883;61;1542;-87
2022/08/15 04:13:10;433630.00;1.45;747.63;63999.00;0.21;111.39;;;;;23.70;1.00;;;;;;2268890;61;1033;-88
2022/08/15 04:15:38;168440.00;0.56;291.58;70288.00;0.23;122.26;;;;;23.70;1.00;;;;;;2268789;61;1470;-87
2022/08/15 04:18:09;355760.00;1.19;613.76;52289.00;0.17;91.14;;;;;23.80;1.00;;;;;;2268836;61;1025;-88
2022/08/15 04:20:40;210235.00;0.70;363.54;66920.00;0.22;116.44;;;;;23.80;1.00;;;;;;2268676;61;1055;-90
2022/08/15 04:23:12;417879.00;1.39;720.54;91918.00;0.31;159.62;;;;;23.80;1.00;;;;;;2268818;61;1982;-89
2022/08/15 04:25:44;314266.00;1.05;542.44;67913.00;0.23;118.15;;;;;23.80;1.00;;;;;;2268800;61;1474;-88
2022/08/15 04:28:13;443534.00;1.48;764.66;64841.00;0.22;112.84;;;;;24.00;1.00;;;;;;2268771;61;1547;-89
2022/08/15 04:30:43;523657.00;1.75;902.56;139778.00;0.47;242.19;;;;;23.90;1.00;;;;;;2268842;61;1129;-89
2022/08/15 04:33:13;611117.00;2.04;1053.42;62961.00;0.21;109.60;;;;;24.00;1.00;;;;;;2277700;56;3791;-89
2022/08/15 04:35:46;419986.00;1.40;724.17;74894.00;0.25;130.22;;;;;23.90;1.00;;;;;;2268757;61;1312;-89
2022/08/15 04:38:16;601260.00;2.00;1036.40;93159.00;0.31;161.76;;;;;23.90;1.00;;;;;;2267655;61;1775;-88
2022/08/15 04:40:45;819254.00;2.73;1414.72;83442.00;0.28;144.98;;;;;23.60;1.00;;;;;;2264842;61;1137;-89
2022/08/15 04:43:15;827204.00;2.76;1428.61;79056.00;0.26;137.41;;;;;23.50;1.00;;;;;;2264759;61;1993;-88
2022/08/15 04:45:45;815525.00;2.72;1408.21;82995.00;0.28;144.21;;;;;23.40;1.00;;;;;;2264325;61;1349;-88
2022/08/15 04:48:14;846195.00;2.82;1461.81;99694.00;0.33;173.04;;;;;23.30;1.00;;;;;;2264429;61;1449;-87
2022/08/15 04:50:48;622981.00;2.08;1073.92;89243.00;0.30;155.00;;;;;23.30;1.00;;;;;;2264660;61;1424;-88
2022/08/15 04:53:16;695624.00;2.32;1199.65;4076.00;0.01;7.68;;;;;23.50;1.00;;;;;;2264630;61;1035;-86
2022/08/15 04:55:47;642679.00;2.14;1107.97;8824.00;0.03;15.91;;;;;23.50;1.00;;;;;;2264522;61;1353;-87
2022/08/15 04:58:18;691207.00;2.30;1191.99;25373.00;0.08;44.57;;;;;23.30;1.00;;;;;;2264534;61;1606;-88
2022/08/15 05:00:55;995607.00;3.32;1724.69;77415.00;0.26;134.57;;;;;23.10;1.00;;;;;;2264712;61;1024;-87
2022/08/15 05:03:22;729832.00;2.43;1259.01;21262.00;0.07;37.46;;;;;23.00;1.00;;;;;;2264610;61;1919;-89
2022/08/15 05:05:54;533937.00;1.78;920.28;10523.00;0.04;18.86;;;;;23.10;1.00;;;;;;2264632;61;1392;-87
2022/08/15 05:08:25;714952.00;2.38;1233.18;74639.00;0.25;129.78;;;;;22.90;1.00;;;;;;2264521;61;935;-85
2022/08/15 05:10:56;525580.00;1.75;905.88;0.00;0.00;0.62;;;;;22.90;1.00;;;;;;2264673;61;985;-87
2022/08/15 05:13:27;573536.00;1.91;988.55;22473.00;0.07;39.55;;;;;23.00;1.00;;;;;;2264467;61;1492;-87
2022/08/15 05:15:57;749425.00;2.50;1293.06;67604.00;0.23;117.62;;;;;22.70;1.00;;;;;;2264606;61;1700;-90
2022/08/15 05:18:25;1376438.00;4.59;2412.70;68163.00;0.23;118.59;;;;;22.40;1.00;;;;;;2264625;61;1156;-89
2022/08/15 05:20:55;899952.00;3.00;1556.04;46829.00;0.16;81.70;;;;;22.20;1.00;;;;;;2264701;61;1408;-87
2022/08/15 05:23:24;971905.00;3.24;1682.77;55417.00;0.18;96.55;;;;;22.40;1.00;;;;;;2264552;61;2008;-88
2022/08/15 05:25:54;866131.00;2.89;1496.71;69144.00;0.23;120.28;;;;;22.60;1.00;;;;;;2264570;61;1377;-86
2022/08/15 05:28:22;979189.00;3.26;1695.65;72670.00;0.24;126.37;;;;;22.60;1.00;;;;;;2264630;61;1089;-88
2022/08/15 05:30:54;685837.00;2.29;1182.69;27573.00;0.09;48.38;;;;;22.70;1.00;;;;;;2264546;61;1692;-88
2022/08/15 05:33:25;811778.00;2.71;1401.67;132430.00;0.44;229.52;;;;;22.70;1.00;;;;;;2264582;61;1173;-90
2022/08/15 05:35:58;606611.00;2.02;1045.64;16732.00;0.06;29.61;;;;;22.70;1.00;;;;;;2264637;61;1694;-89
2022/08/15 05:38:32;273187.00;0.91;471.82;0.00;0.00;0.62;;;;;22.70;1.00;;;;;;2264612;61;1059;-87
2022/08/15 05:41:15;195590.00;0.65;338.33;0.00;0.00;0.62;;;;;22.90;1.00;;;;;;2264529;61;1423;-86
2022/08/15 05:43:53;157814.00;0.53;273.27;0.00;0.00;0.62;;;;;22.90;1.00;;;;;;2264467;61;1919;-88
2022/08/15 05:46:25;206316.00;0.69;356.79;0.00;0.00;0.62;;;;;23.10;1.00;;;;;;2264431;61;1801;-89
2022/08/15 05:49:03;33397.00;0.11;58.46;0.00;0.00;0.62;;;;;23.00;1.00;;;;;;2264437;61;1225;-85
2022/08/15 05:51:40;51514.00;0.17;89.80;0.00;0.00;0.62;;;;;23.30;1.00;;;;;;2264561;61;1106;-88
2022/08/15 05:54:21;0.00;0.00;0.62;0.00;0.00;0.62;;;;;23.40;1.00;;;;;;2264495;61;1092;-87
2022/08/15 05:57:01;203007.00;0.68;351.10;0.00;0.00;0.62;;;;;23.70;1.00;;;;;;2264491;61;1628;-89
2022/08/15 05:59:36;24248.00;0.08;42.63;0.00;0.00;0.62;;;;;23.80;1.00;;;;;;2264532;61;1048;-84
2022/08/15 06:02:11;130661.00;0.44;226.47;6596.00;0.02;12.05;;;;;23.80;1.00;;;;;;2264508;61;933;-83
2022/08/15 06:04:47;144732.00;0.48;250.73;0.00;0.00;0.62;;;;;24.10;1.00;;;;;;2264435;61;1981;-86
2022/08/15 06:07:18;191255.00;0.64;330.87;0.00;0.00;0.62;;;;;24.30;1.00;;;;;;2264305;61;1609;-84
2022/08/15 06:09:52;190890.00;0.64;330.24;45284.00;0.15;79.03;;;;;24.50;1.00;;;;;;2264498;61;1036;-85
2022/08/15 06:12:28;168809.00;0.56;292.22;0.00;0.00;0.62;;;;;24.80;1.00;;;;;;2264549;61;698;-87
2022/08/15 06:15:02;237473.00;0.79;410.40;0.00;0.00;0.62;;;;;24.90;1.00;;;;;;2264421;61;1359;-86
2022/08/15 06:17:35;284411.00;0.95;491.12;23415.00;0.08;41.18;;;;;25.20;1.00;;;;;;2264479;61;1498;-87
2022/08/15 06:20:08;154611.00;0.52;267.75;0.00;0.00;0.62;;;;;25.20;1.00;;;;;;2264362;61;1247;-88
2022/08/15 06:22:55;89676.00;0.30;155.75;0.00;0.00;0.62;;;;;25.20;1.00;;;;;;2264437;61;1114;-86
2022/08/15 06:25:33;161166.00;0.54;279.05;0.00;0.00;0.62;;;;;25.60;1.00;;;;;;2264216;61;1993;-86
2022/08/15 06:28:19;48862.00;0.16;85.22;0.00;0.00;0.62;;;;;25.80;1.00;;;;;;2264354;61;1701;-86
2022/08/15 06:30:56;42702.00;0.14;74.56;0.00;0.00;0.62;;;;;26.40;1.00;;;;;;2264439;61;1079;-88
2022/08/15 06:33:35;235734.00;0.79;407.41;6527.00;0.02;11.93;;;;;27.50;1.00;;;;;;2264217;61;1063;-87
2022/08/15 06:36:16;115817.00;0.39;200.87;0.00;0.00;0.62;;;;;29.20;1.00;;;;;;2264305;61;1472;-87
2022/08/15 06:38:55;234206.00;0.78;404.78;0.00;0.00;0.62;;;;;31.10;1.00;;;;;;2264385;61;1106;-87
2022/08/15 06:41:31;167305.00;0.56;289.62;0.00;0.00;0.62;;;;;33.20;1.00;;;;;;2264251;61;1666;-88
2022/08/15 06:44:00;111146.00;0.37;192.81;0.00;0.00;0.62;;;;;34.50;1.00;;;;;;2264341;61;1912;-88
2022/08/15 06:46:32;163079.00;0.54;282.34;0.00;0.00;0.62;;;;;35.30;1.00;;;;;;2264202;61;1359;-88
2022/08/15 06:49:03;352124.00;1.17;607.51;0.00;0.00;0.62;;;;;35.50;1.00;;;;;;2264166;61;1520;-87
2022/08/15 06:51:35;146776.00;0.49;254.25;0.00;0.00;0.62;;;;;35.80;1.00;;;;;;2264226;61;1157;-86
2022/08/15 06:54:05;119831.00;0.40;207.79;0.00;0.00;0.62;;;;;36.10;1.00;;;;;;2264262;61;1051;-87
2022/08/15 06:56:48;202583.00;0.68;350.37;0.00;0.00;0.62;;;;;36.10;1.00;;;;;;2264099;61;1605;-86
2022/08/15 06:59:23;103938.00;0.35;180.37;0.00;0.00;0.62;;;;;36.80;1.00;;;;;;2264214;61;1595;-87
2022/08/15 07:02:00;174621.00;0.58;302.23;0.00;0.00;0.62;;;;;37.20;1.00;;;;;;2264267;61;1091;-86
2022/08/15 07:04:50;96926.00;0.32;168.27;0.00;0.00;0.62;;;;;36.40;1.00;;;;;;2264156;61;2024;-87
2022/08/15 07:07:35;313432.00;1.04;541.01;0.00;0.00;0.62;;;;;36.30;1.00;;;;;;2264157;61;1033;-87
2022/08/15 07:10:13;102827.00;0.34;178.45;0.00;0.00;0.62;;;;;36.70;1.00;;;;;;2264273;61;993;-87
2022/08/15 07:12:50;226432.00;0.75;391.41;21703.00;0.07;38.22;;;;;37.40;1.00;;;;;;2264230;61;1234;-87
2022/08/15 07:15:24;0.00;0.00;0.62;0.00;0.00;0.62;;;;;36.90;1.00;;;;;;2264062;61;1605;-88
2022/08/15 07:17:58;0.00;0.00;0.62;0.00;0.00;0.62;;;;;37.10;1.00;;;;;;2264072;61;1564;-86
2022/08/15 07:20:25;93432.00;0.31;162.23;0.00;0.00;0.62;;;;;37.50;1.00;;;;;;2264027;61;1144;-84
2022/08/15 07:22:52;87063.00;0.29;151.24;0.00;0.00;0.62;;;;;36.40;1.00;;;;;;2263815;61;1386;-85
2022/08/15 07:25:28;27100.00;0.09;47.56;0.00;0.00;0.62;;;;;36.60;1.00;;;;;;2263254;61;2010;-86
2022/08/15 07:28:00;0.00;0.00;0.62;0.00;0.00;0.62;;;;;36.50;1.00;;;;;;2264153;61;1160;-86
2022/08/15 07:30:38;0.00;0.00;0.62;0.00;0.00;0.62;;;;;36.80;1.00;;;;;;2264016;61;915;-86
2022/08/15 07:33:05;0.00;0.00;0.62;0.00;0.00;0.62;;;;;35.30;1.00;;;;;;2263556;61;1160;-86
2022/08/15 07:35:34;69094.00;0.23;120.19;0.00;0.00;0.62;;;;;34.90;1.00;;;;;;2263722;61;1286;-87
2022/08/15 07:38:06;136615.00;0.46;236.74;0.00;0.00;0.62;;;;;34.10;1.00;;;;;;2264005;61;1060;-88
2022/08/15 07:40:38;79026.00;0.26;137.35;0.00;0.00;0.62;;;;;34.90;1.00;;;;;;2264136;61;1117;-88
2022/08/15 07:43:25;87806.00;0.29;152.52;0.00;0.00;0.62;;;;;34.70;1.00;;;;;;2264090;61;1150;-88
2022/08/15 07:46:07;140425.00;0.47;243.30;0.00;0.00;0.62;;;;;34.90;1.00;;;;;;2263958;61;1940;-87
2022/08/15 07:48:34;5337.00;0.02;9.87;0.00;0.00;0.62;;;;;35.20;1.00;;;;;;2264085;61;1061;-87
2022/08/15 07:51:09;168990.00;0.56;292.53;0.00;0.00;0.62;;;;;34.80;1.00;;;;;;2264049;61;976;-86
2022/08/15 07:53:50;74647.00;0.25;129.79;0.00;0.00;0.62;;;;;34.80;1.00;;;;;;2263618;61;1449;-87
2022/08/15 07:56:19;92679.00;0.31;160.93;0.00;0.00;0.62;;;;;34.90;1.00;;;;;;2263846;61;1448;-87
2022/08/15 07:58:48;126436.00;0.42;219.18;0.00;0.00;0.62;;;;;34.90;1.00;;;;;;2263929;61;1026;-84
2022/08/15 08:01:23;53632.00;0.18;93.47;0.00;0.00;0.62;;;;;34.20;1.00;;;;;;2263878;61;1497;-87
2022/08/15 08:03:58;370479.00;1.23;639.06;45224.00;0.15;78.93;;;;;34.00;1.00;;;;;;2263894;61;1985;-87
2022/08/15 08:06:32;255696.00;0.85;441.75;0.00;0.00;0.62;;;;;34.80;1.00;;;;;;2263853;61;1462;-86
2022/08/15 08:09:09;216350.00;0.72;374.06;41700.00;0.14;72.83;;;;;35.00;1.00;;;;;;2263905;61;1151;-88
2022/08/15 08:11:46;128372.00;0.43;222.52;0.00;0.00;0.62;;;;;34.90;1.00;;;;;;2263844;61;1467;-87
2022/08/15 08:14:27;0.00;0.00;0.62;0.00;0.00;0.62;;;;;34.00;1.00;;;;;;2264033;61;1119;-88
2022/08/15 08:16:57;47410.00;0.16;82.71;0.00;0.00;0.62;;;;;33.70;1.00;;;;;;2264033;61;1484;-86
2022/08/15 08:19:34;0.00;0.00;0.62;0.00;0.00;0.62;;;;;34.10;1.00;;;;;;2263970;61;1444;-87
2022/08/15 08:22:11;10377.00;0.03;18.60;0.00;0.00;0.62;;;;;34.50;1.00;;;;;;2264060;61;1086;-88
2022/08/15 08:24:48;63105.00;0.21;109.84;0.00;0.00;0.62;;;;;34.50;1.00;;;;;;2263953;61;2017;-86
2022/08/15 08:27:29;17052.00;0.06;30.16;0.00;0.00;0.62;;;;;34.40;1.00;;;;;;2264047;61;1077;-87
2022/08/15 08:30:04;15145.00;0.05;26.86;0.00;0.00;0.62;;;;;34.20;1.00;;;;;;2264023;61;1101;-87
2022/08/15 08:32:45;133406.00;0.44;231.20;0.00;0.00;0.62;;;;;33.60;1.00;;;;;;2263857;61;1106;-85
2022/08/15 08:35:22;162619.00;0.54;281.55;0.00;0.00;0.62;;;;;33.10;1.00;;;;;;2263899;61;1432;-86
2022/08/15 08:38:01;177221.00;0.59;306.70;0.00;0.00;0.62;;;;;32.90;1.00;;;;;;2264024;61;1160;-86
2022/08/15 08:43:35;41201.00;0.14;71.97;0.00;0.00;0.62;;;;;33.20;1.00;;;;;;2264094;61;715;-86
2022/08/15 08:46:15;165621.00;0.55;286.72;57895.00;0.19;100.84;;;;;32.80;1.00;;;;;;2263982;61;1932;-87
2022/08/15 08:48:52;221788.00;0.74;383.42;61495.00;0.20;107.06;;;;;33.40;1.00;;;;;;2264232;61;1449;-86
2022/08/15 08:51:34;206384.00;0.69;356.91;39434.00;0.13;68.91;;;;;33.10;1.00;;;;;;2264643;61;1179;-88
2022/08/15 08:54:08;169513.00;0.57;293.43;61296.00;0.20;106.72;;;;;32.60;1.00;;;;;;2264741;61;1138;-87
2022/08/15 08:56:40;180344.00;0.60;312.08;63800.00;0.21;111.05;;;;;33.30;1.00;;;;;;2264624;61;1482;-87
2022/08/15 08:59:18;163524.00;0.55;283.11;52012.00;0.17;90.67;;;;;33.70;1.00;;;;;;2264682;61;1109;-88
2022/08/15 09:01:48;265513.00;0.89;458.63;59726.00;0.20;104.00;;;;;33.80;1.00;;;;;;2264600;61;1468;-86
2022/08/15 09:04:21;441817.00;1.47;761.71;63304.00;0.21;110.19;;;;;33.70;1.00;;;;;;2264537;61;1924;-87
2022/08/15 09:06:51;285169.00;0.95;492.42;46740.00;0.16;81.55;;;;;33.30;1.00;;;;;;2264614;61;1402;-86
2022/08/15 09:09:29;299898.00;1.00;517.74;59229.00;0.20;103.14;;;;;33.50;1.00;;;;;;2264647;61;1025;-88
2022/08/15 09:12:00;372836.00;1.24;643.11;59140.00;0.20;102.99;;;;;33.90;1.00;;;;;;2264674;61;1046;-86
2022/08/15 09:14:35;383963.00;1.28;662.24;114749.00;0.38;199.02;;;;;33.40;1.00;;;;;;2264584;61;940;-87
2022/08/15 09:17:12;497606.00;1.66;857.70;103018.00;0.34;178.78;;;;;32.70;1.00;;;;;;2263709;61;1329;-85
2022/08/15 09:19:46;299462.00;1.00;517.00;103650.00;0.35;179.87;;;;;32.50;1.00;;;;;;2262923;61;1065;-85
2022/08/15 09:22:14;365373.00;1.22;630.28;54614.00;0.18;95.16;;;;;32.00;1.00;;;;;;2264506;61;1546;-86
2022/08/15 09:24:42;222507.00;0.74;384.66;59186.00;0.20;103.07;;;;;31.90;1.00;;;;;;2264555;61;2003;-85
2022/08/15 09:27:21;338246.00;1.13;583.66;61870.00;0.21;107.71;;;;;31.90;1.00;;;;;;2264442;61;1314;-85
2022/08/15 09:29:55;510315.00;1.70;879.58;56755.00;0.19;98.87;;;;;31.80;1.00;;;;;;2264467;61;1723;-88
2022/08/15 09:32:44;246275.00;0.82;425.54;58313.00;0.19;101.56;;;;;32.00;1.00;;;;;;2264590;61;1086;-87
2022/08/15 09:35:38;471217.00;1.57;812.28;50459.00;0.17;87.98;;;;;31.90;1.00;;;;;;2264585;61;1463;-86
2022/08/15 09:38:22;180971.00;0.60;313.16;0.00;0.00;0.62;;;;;31.70;1.00;;;;;;2264514;61;2201;-87
2022/08/15 09:41:09;284737.00;0.95;491.68;0.00;0.00;0.62;;;;;31.50;1.00;;;;;;2264505;61;1112;-86
2022/08/15 09:43:56;261361.00;0.87;451.49;47567.00;0.16;82.98;;;;;31.90;1.00;;;;;;2264474;61;1565;-86
2022/08/15 09:46:57;205412.00;0.68;355.24;24496.00;0.08;43.05;;;;;32.20;1.00;;;;;;2264377;61;1923;-86
2022/08/15 09:49:42;193321.00;0.64;334.43;59939.00;0.20;104.37;;;;;32.30;1.00;;;;;;2259728;61;1716;-85
2022/08/15 09:52:26;518209.00;1.73;893.18;99910.00;0.33;173.42;;;;;32.00;1.00;;;;;;2264474;61;1054;-86
2022/08/15 09:55:01;382447.00;1.27;659.63;54460.00;0.18;94.90;;;;;32.00;1.00;;;;;;2264482;61;1391;-88
2022/08/15 09:57:37;442168.00;1.47;762.31;58834.00;0.20;102.46;;;;;32.20;1.00;;;;;;2264512;61;980;-87
2022/08/15 10:00:18;451296.00;1.50;778.01;64169.00;0.21;111.68;;;;;32.30;1.00;;;;;;2264424;61;1949;-89
2022/08/15 10:02:51;1196598.00;3.99;2084.07;394371.00;1.31;680.13;;;;;31.80;1.00;;;;;;2264433;61;1425;-86
2022/08/15 10:05:29;353466.00;1.18;609.82;133490.00;0.44;231.35;;;;;32.00;1.00;;;;;;2264395;61;1928;-86
2022/08/15 10:07:59;31512.00;0.11;55.20;0.00;0.00;0.62;;;;;32.00;1.00;;;;;;2264487;61;955;-87
2022/08/15 10:10:49;252458.00;0.84;436.18;33289.00;0.11;58.28;;;;;31.70;1.00;;;;;;2264357;61;1643;-86
2022/08/15 10:18:48;721646.00;2.41;1244.80;0.00;0.00;0.62;;;;;31.80;1.00;;;;;;2265975;61;1930;-89
2022/08/15 10:21:20;166629.00;0.56;288.46;63619.00;0.21;110.73;;;;;32.10;1.00;;;;;;2263967;61;1011;-87
2022/08/15 10:23:50;201118.00;0.67;347.85;35378.00;0.12;61.89;;;;;31.90;1.00;;;;;;2264469;61;910;-89
2022/08/15 10:26:26;439311.00;1.46;757.40;0.00;0.00;0.62;;;;;31.80;1.00;;;;;;2264297;61;1936;-89